createdAt,value
2018-09-08T12:06:06.840Z,38.84
2018-09-08T12:07:06.813Z,40.19
2018-09-08T12:08:06.858Z,41.43
2018-09-08T12:09:06.787Z,41.77
2018-09-08T12:10:06.811Z,42.60
2018-09-08T12:11:06.778Z,42.66
2018-09-08T12:12:06.751Z,41.61
2018-09-08T12:13:06.742Z,41.02
2018-09-08T12:14:06.733Z,41.53
2018-09-08T12:15:06.716Z,39.41
2018-09-08T12:16:06.730Z,39.22
2018-09-08T12:17:06.697Z,38.70
2018-09-08T12:18:06.690Z,41.60
2018-09-08T12:19:06.761Z,39.50
2018-09-08T12:20:06.662Z,41.38
2018-09-08T12:21:06.678Z,39.04
2018-09-08T12:22:06.684Z,37.74
2018-09-08T12:23:06.624Z,38.92
2018-09-08T12:24:06.615Z,38.64
2018-09-08T12:25:06.606Z,39.92
2018-09-08T12:26:06.597Z,39.32
2018-09-08T12:27:06.604Z,38.44
2018-09-08T12:28:06.580Z,38.38
2018-09-08T12:29:06.562Z,39.11
2018-09-08T12:30:06.546Z,41.71
2018-09-08T12:31:06.541Z,40.41
2018-09-08T12:32:06.544Z,38.81
2018-09-08T12:33:06.515Z,39.28
2018-09-08T12:34:06.500Z,37.99
2018-09-08T12:35:06.488Z,39.11
2018-09-08T12:36:06.481Z,37.61
2018-09-08T12:37:06.557Z,37.49
2018-09-08T12:38:06.462Z,39.98
2018-09-08T12:39:06.450Z,37.66
2018-09-08T12:40:06.439Z,35.66
2018-09-08T12:41:06.423Z,37.48
2018-09-08T12:42:06.411Z,36.99
2018-09-08T12:43:06.421Z,37.51
2018-09-08T12:44:06.389Z,39.28
2018-09-08T12:45:06.429Z,40.75
2018-09-08T12:46:06.372Z,38.54
2018-09-08T12:47:06.351Z,39.74
2018-09-08T12:48:06.363Z,38.87
2018-09-08T12:49:06.335Z,40.97
2018-09-08T12:50:06.328Z,38.61
2018-09-08T12:51:06.314Z,38.91
2018-09-08T12:52:06.307Z,39.85
2018-09-08T12:53:06.333Z,40.33
2018-09-08T12:54:06.275Z,39.41
2018-09-08T12:55:06.277Z,39.51
2018-09-08T12:56:06.275Z,40.19
2018-09-08T12:57:06.244Z,40.94
2018-09-08T12:58:06.235Z,39.74
2018-09-08T12:59:06.287Z,37.02
2018-09-08T13:00:06.210Z,37.04
2018-09-08T13:01:06.202Z,37.66
2018-09-08T13:02:06.183Z,37.36
2018-09-08T13:03:06.179Z,37.36
2018-09-08T13:04:06.182Z,38.07
2018-09-08T13:05:06.151Z,37.16
2018-09-08T13:06:06.159Z,38.18
2018-09-08T13:07:06.129Z,37.77
2018-09-08T13:08:06.118Z,38.59
2018-09-08T13:09:06.137Z,38.68
2018-09-08T13:10:06.102Z,37.59
2018-09-08T13:11:06.088Z,37.70
2018-09-08T13:12:06.078Z,38.89
2018-09-08T13:13:06.065Z,39.11
2018-09-08T13:14:06.097Z,40.11
2018-09-08T13:15:06.044Z,40.91
2018-09-08T13:16:06.040Z,39.95
2018-09-08T13:17:06.018Z,40.45
2018-09-08T13:18:06.010Z,39.83
2018-09-08T13:19:05.995Z,39.81
2018-09-08T13:20:06.000Z,38.61
2018-09-08T13:21:05.975Z,39.53
2018-09-08T13:22:05.965Z,40.77
2018-09-08T13:23:05.955Z,40.07
2018-09-08T13:24:05.971Z,39.55
2018-09-08T13:25:05.941Z,39.63
2018-09-08T13:26:05.911Z,39.11
2018-09-08T13:27:05.917Z,37.49
2018-09-08T13:28:05.896Z,40.17
2018-09-08T13:29:05.906Z,38.59
2018-09-08T13:30:05.896Z,38.40
2018-09-08T13:31:05.864Z,39.31
2018-09-08T13:32:05.850Z,39.11
2018-09-08T13:33:05.888Z,39.53
2018-09-08T13:34:05.828Z,40.11
2018-09-08T13:35:05.834Z,40.03
2018-09-08T13:36:05.812Z,39.23
2018-09-08T13:37:05.791Z,39.35
2018-09-08T13:38:05.777Z,39.43
2018-09-08T13:39:05.765Z,40.05
2018-09-08T13:40:05.800Z,41.25
2018-09-08T13:41:05.749Z,40.81
2018-09-08T13:42:05.748Z,39.61
2018-09-08T13:43:05.726Z,39.61
2018-09-08T13:44:05.713Z,39.91
2018-09-08T13:45:05.733Z,39.39
2018-09-08T13:46:05.698Z,39.39
2018-09-08T13:47:05.751Z,40.47
2018-09-08T13:48:05.669Z,40.88
2018-09-08T13:49:05.658Z,41.27
2018-09-08T13:50:05.653Z,40.66
2018-09-08T13:51:05.661Z,38.66
2018-09-08T13:52:05.633Z,39.98
2018-09-08T13:53:05.611Z,38.68
2018-09-08T13:54:05.605Z,39.00
2018-09-08T13:55:05.609Z,40.43
2018-09-08T13:56:05.594Z,39.81
2018-09-08T13:57:05.616Z,38.70
2018-09-08T13:58:05.552Z,39.79
2018-09-08T13:59:05.541Z,39.79
2018-09-08T14:00:05.530Z,40.09
2018-09-08T14:01:05.553Z,41.27
2018-09-08T14:02:05.513Z,40.59
2018-09-08T14:03:05.501Z,39.91
2018-09-08T14:04:05.504Z,40.61
2018-09-08T14:05:05.478Z,41.71
2018-09-08T14:06:05.465Z,39.81
2018-09-08T14:07:05.453Z,40.93
2018-09-08T14:08:05.446Z,41.55
2018-09-08T14:09:05.426Z,42.96
2018-09-08T14:10:05.418Z,42.46
2018-09-08T14:11:05.409Z,43.43
2018-09-08T14:12:05.397Z,41.31
2018-09-08T14:13:05.390Z,41.61
2018-09-08T14:14:05.374Z,41.09
2018-09-08T14:15:05.374Z,40.80
2018-09-08T14:16:05.353Z,40.58
2018-09-08T14:17:05.352Z,40.37
2018-09-08T14:18:05.330Z,40.88
2018-09-08T14:19:05.316Z,41.30
2018-09-08T14:20:05.302Z,41.02
2018-09-08T14:21:05.297Z,42.13
2018-09-08T14:22:05.306Z,42.82
2018-09-08T14:23:05.294Z,42.82
2018-09-08T14:24:05.257Z,42.61
2018-09-08T14:25:05.252Z,43.24
2018-09-08T14:26:05.240Z,44.12
2018-09-08T14:27:05.227Z,42.32
2018-09-08T14:28:05.263Z,41.82
2018-09-08T14:29:05.203Z,41.61
2018-09-08T14:30:05.195Z,40.97
2018-09-08T14:31:05.180Z,41.08
2018-09-08T14:32:05.166Z,40.14
2018-09-08T14:33:05.165Z,39.92
2018-09-08T14:34:05.149Z,38.82
2018-09-08T14:35:05.137Z,38.92
2018-09-08T14:36:05.128Z,37.77
2018-09-08T14:37:05.111Z,37.25
2018-09-08T14:38:05.139Z,37.49
2018-09-08T14:39:05.102Z,39.72
2018-09-08T14:40:05.084Z,40.64
2018-09-08T14:41:05.065Z,39.74
2018-09-08T14:42:05.055Z,39.34
2018-09-08T14:43:05.063Z,39.24
2018-09-08T14:44:05.030Z,38.89
2018-09-08T14:45:05.027Z,38.52
2018-09-08T14:46:05.013Z,40.44
2018-09-08T14:47:05.001Z,39.22
2018-09-08T14:48:05.042Z,38.15
2018-09-08T14:49:04.977Z,35.16
2018-09-08T14:50:04.964Z,34.45
2018-09-08T14:51:04.955Z,32.70
2018-09-08T14:52:04.944Z,31.38
2018-09-08T14:53:04.936Z,32.19
2018-09-08T14:54:04.928Z,30.58
2018-09-08T14:55:04.931Z,32.06
2018-09-08T14:56:04.932Z,31.05
2018-09-08T14:57:05.009Z,32.58
2018-09-08T14:58:05.018Z,33.09
2018-09-08T14:59:04.886Z,31.99
2018-09-08T15:00:04.858Z,32.70
2018-09-08T15:01:04.889Z,32.63
2018-09-08T15:02:04.831Z,35.19
2018-09-08T15:03:04.829Z,37.27
2018-09-08T15:04:04.829Z,39.32
2018-09-08T15:05:04.873Z,41.69
2018-09-08T15:06:04.791Z,42.91
2018-09-08T15:07:04.871Z,41.63
2018-09-08T15:08:04.780Z,41.71
2018-09-08T15:09:04.774Z,41.53
2018-09-08T15:10:04.765Z,41.03
2018-09-08T15:11:04.780Z,40.04
2018-09-08T15:12:04.724Z,40.45
2018-09-08T15:13:04.709Z,41.41
2018-09-08T15:14:04.731Z,41.24
2018-09-08T15:15:04.688Z,42.47
2018-09-08T15:16:04.752Z,43.18
2018-09-08T15:17:04.690Z,42.47
2018-09-08T15:18:04.743Z,42.97
2018-09-08T15:19:04.674Z,42.90
2018-09-08T15:20:04.694Z,42.99
2018-09-08T15:21:04.615Z,42.49
2018-09-08T15:22:04.608Z,43.10
2018-09-08T15:23:04.611Z,43.30
2018-09-08T15:24:05.283Z,42.60
2018-09-08T15:25:04.598Z,44.20
2018-09-08T15:26:04.570Z,43.90
2018-09-08T15:27:04.562Z,44.50
2018-09-08T15:28:04.536Z,44.10
2018-09-08T15:29:04.534Z,43.62
2018-09-08T15:30:04.549Z,44.52
2018-09-08T15:31:04.509Z,44.12
2018-09-08T15:32:04.505Z,43.92
2018-09-08T15:33:04.479Z,45.65
2018-09-08T15:34:04.479Z,45.72
2018-09-08T15:35:04.483Z,45.45
2018-09-08T15:36:04.445Z,45.65
2018-09-08T15:37:04.448Z,44.64
2018-09-08T15:38:04.432Z,45.54
2018-09-08T15:39:04.447Z,44.04
2018-09-08T15:40:04.419Z,44.95
2018-09-08T15:41:04.394Z,45.04
2018-09-08T15:42:04.389Z,44.04
2018-09-08T15:43:04.371Z,43.34
2018-09-08T15:44:04.368Z,45.04
2018-09-08T15:45:04.350Z,45.54
2018-09-08T15:46:04.456Z,45.17
2018-09-08T15:47:04.342Z,44.74
2018-09-08T15:48:04.361Z,45.54
2018-09-08T15:49:04.303Z,45.67
2018-09-08T15:50:04.294Z,44.64
2018-09-08T15:51:04.335Z,43.34
2018-09-08T15:52:04.304Z,43.54
2018-09-08T15:53:04.253Z,44.54
2018-09-08T15:54:04.250Z,45.34
2018-09-08T15:55:04.256Z,45.04
2018-09-08T15:56:04.282Z,46.33
2018-09-08T15:57:04.217Z,46.15
2018-09-08T15:58:04.217Z,45.32
2018-09-08T15:59:04.185Z,45.22
2018-09-08T16:00:04.174Z,45.45
2018-09-08T16:01:04.222Z,45.75
2018-09-08T16:02:04.183Z,46.35
2018-09-08T16:03:04.149Z,45.34
2018-09-08T16:04:04.143Z,45.97
2018-09-08T16:05:04.122Z,45.97
2018-09-08T16:06:04.152Z,46.07
2018-09-08T16:07:04.118Z,45.67
2018-09-08T16:08:04.079Z,45.87
2018-09-08T16:09:04.077Z,46.37
2018-09-08T16:10:04.081Z,46.27
2018-09-08T16:11:04.075Z,46.35
2018-09-08T16:12:04.150Z,46.65
2018-09-08T16:13:04.023Z,46.15
2018-09-08T16:14:04.014Z,45.47
2018-09-08T16:15:04.022Z,45.18
2018-09-08T16:16:04.025Z,45.49
2018-09-08T16:17:04.055Z,45.59
2018-09-08T16:18:03.992Z,46.09
2018-09-08T16:19:03.962Z,45.67
2018-09-08T16:20:03.949Z,45.77
2018-09-08T16:21:03.973Z,45.97
2018-09-08T16:22:03.930Z,46.49
2018-09-08T16:23:03.915Z,47.00
2018-09-08T16:24:03.903Z,46.47
2018-09-08T16:25:03.896Z,46.09
2018-09-08T16:26:03.881Z,46.51
2018-09-08T16:27:03.865Z,46.01
2018-09-08T16:28:03.876Z,46.61
2018-09-08T16:29:03.848Z,47.02
2018-09-08T16:30:03.864Z,47.32
2018-09-08T16:31:03.820Z,47.32
2018-09-08T16:32:03.818Z,46.61
2018-09-08T16:33:03.824Z,47.52
2018-09-08T16:34:03.788Z,46.61
2018-09-08T16:35:03.777Z,46.31
2018-09-08T16:36:03.768Z,46.11
2018-09-08T16:37:03.756Z,47.62
2018-09-08T16:38:03.740Z,46.61
2018-09-08T16:39:03.742Z,46.72
2018-09-08T16:40:03.720Z,46.31
2018-09-08T16:41:03.714Z,46.31
2018-09-08T16:42:03.703Z,46.34
2018-09-08T16:43:03.691Z,47.64
2018-09-08T16:44:03.783Z,46.94
2018-09-08T16:45:03.664Z,46.84
2018-09-08T16:46:03.664Z,48.05
2018-09-08T16:47:03.703Z,47.34
2018-09-08T16:48:03.635Z,47.64
2018-09-08T16:49:03.640Z,47.54
2018-09-08T16:50:03.663Z,48.14
2018-09-08T16:51:03.608Z,47.34
2018-09-08T16:52:03.638Z,47.54
2018-09-08T16:53:03.577Z,48.37
2018-09-08T16:54:03.585Z,48.05
2018-09-08T16:55:03.600Z,48.25
2018-09-08T16:56:03.568Z,47.85
2018-09-08T16:57:03.531Z,47.74
2018-09-08T16:58:03.586Z,48.57
2018-09-08T16:59:03.523Z,48.77
2018-09-08T17:00:03.493Z,48.27
2018-09-08T17:01:03.496Z,47.94
2018-09-08T17:02:03.476Z,48.57
2018-09-08T17:03:03.468Z,47.46
2018-09-08T17:04:03.512Z,48.57
2018-09-08T17:05:03.567Z,48.57
2018-09-08T17:06:03.430Z,48.79
2018-09-08T17:07:03.443Z,49.19
2018-09-08T17:08:03.411Z,49.19
2018-09-08T17:09:03.393Z,48.99
2018-09-08T17:10:03.411Z,48.39
2018-09-08T17:11:03.386Z,47.89
2018-09-08T17:12:03.388Z,48.29
2018-09-08T17:13:03.356Z,47.89
2018-09-08T17:14:03.345Z,48.99
2018-09-08T17:15:03.375Z,48.79
2018-09-08T17:16:03.335Z,50.23
2018-09-08T17:17:03.305Z,48.69
2018-09-08T17:18:03.303Z,49.02
2018-09-08T17:19:03.290Z,49.90
2018-09-08T17:20:03.309Z,49.73
2018-09-08T17:21:03.272Z,48.82
2018-09-08T17:22:03.248Z,48.69
2018-09-08T17:23:03.250Z,48.61
2018-09-08T17:24:03.231Z,49.12
2018-09-08T17:25:03.245Z,49.90
2018-09-08T17:26:03.211Z,49.62
2018-09-08T17:27:03.293Z,49.32
2018-09-08T17:28:03.207Z,49.32
2018-09-08T17:29:03.208Z,50.13
2018-09-08T17:30:03.209Z,50.43
2018-09-08T17:31:03.166Z,50.13
2018-09-08T17:32:03.135Z,51.14
2018-09-08T17:33:03.173Z,50.13
2018-09-08T17:34:03.139Z,50.33
2018-09-08T17:35:03.133Z,50.83
2018-09-08T17:36:03.126Z,50.13
2018-09-08T17:37:03.100Z,50.35
2018-09-08T17:38:03.074Z,50.93
2018-09-08T17:39:03.077Z,50.33
2018-09-08T17:40:03.060Z,50.25
2018-09-08T17:41:03.041Z,50.73
2018-09-08T17:42:03.049Z,50.96
2018-09-08T17:43:03.015Z,49.93
2018-09-08T17:44:03.004Z,50.45
2018-09-08T17:45:02.994Z,50.35
2018-09-08T17:46:03.030Z,51.06
2018-09-08T17:47:03.006Z,50.15
2018-09-08T17:48:02.991Z,50.25
2018-09-08T17:49:02.942Z,50.15
2018-09-08T17:50:02.961Z,50.35
2018-09-08T17:51:02.991Z,50.96
2018-09-08T17:52:03.084Z,50.65
2018-09-08T17:53:02.946Z,50.15
2018-09-08T17:54:02.895Z,50.15
2018-09-08T17:55:02.885Z,50.88
2018-09-08T17:56:02.900Z,51.08
2018-09-08T17:57:02.859Z,50.68
2018-09-08T17:58:02.850Z,50.07
2018-09-08T17:59:02.934Z,50.05
2018-09-08T18:00:02.827Z,50.57
2018-09-08T18:01:02.809Z,50.57
2018-09-08T18:02:02.816Z,50.48
2018-09-08T18:03:02.800Z,51.18
2018-09-08T18:04:02.801Z,53.00
2018-09-08T18:05:02.776Z,52.09
2018-09-08T18:06:02.762Z,51.89
2018-09-08T18:07:02.771Z,50.88
2018-09-08T18:08:02.740Z,51.68
2018-09-08T18:09:02.725Z,51.68
2018-09-08T18:10:02.716Z,52.01
2018-09-08T18:11:02.704Z,52.42
2018-09-08T18:12:02.711Z,52.22
2018-09-08T18:13:02.685Z,52.72
2018-09-08T18:14:02.673Z,52.74
2018-09-08T18:15:02.701Z,52.84
2018-09-08T18:16:02.644Z,52.76
2018-09-08T18:17:02.689Z,52.14
2018-09-08T18:18:02.623Z,52.22
2018-09-08T18:19:02.621Z,52.11
2018-09-08T18:20:02.603Z,52.54
2018-09-08T18:21:02.583Z,53.14
2018-09-08T18:22:02.575Z,52.94
2018-09-08T18:23:02.636Z,52.64
2018-09-08T18:24:02.565Z,52.74
2018-09-08T18:25:02.597Z,52.31
2018-09-08T18:26:02.543Z,53.14
2018-09-08T18:27:02.591Z,52.24
2018-09-08T18:28:02.647Z,52.62
2018-09-08T18:29:02.600Z,52.22
2018-09-08T18:30:02.498Z,53.34
2018-09-08T18:31:02.488Z,53.27
2018-09-08T18:32:02.475Z,54.08
2018-09-08T18:33:02.476Z,53.55
2018-09-08T18:34:02.450Z,53.75
2018-09-08T18:35:02.453Z,53.22
2018-09-08T18:36:02.421Z,53.25
2018-09-08T18:37:02.483Z,53.85
2018-09-08T18:38:02.399Z,53.85
2018-09-08T18:39:02.439Z,53.55
2018-09-08T18:40:02.374Z,55.16
2018-09-08T18:41:02.372Z,53.98
2018-09-08T18:42:02.370Z,54.99
2018-09-08T18:43:02.425Z,55.99
2018-09-08T18:44:02.373Z,55.79
2018-09-08T18:45:02.325Z,55.79
2018-09-08T18:46:02.347Z,55.19
2018-09-08T18:47:02.312Z,54.79
2018-09-08T18:48:02.299Z,54.79
2018-09-08T18:49:02.276Z,54.79
2018-09-08T18:50:02.264Z,54.68
2018-09-08T18:51:02.299Z,55.32
2018-09-08T18:52:02.266Z,56.52
2018-09-08T18:53:02.259Z,55.39
2018-09-08T18:54:02.243Z,54.79
2018-09-08T18:55:02.268Z,54.68
2018-09-08T18:56:02.251Z,55.39
2018-09-08T18:57:02.226Z,54.91
2018-09-08T18:58:02.209Z,55.11
2018-09-08T18:59:02.169Z,55.04
2018-09-08T19:00:02.169Z,54.94
2018-09-08T19:01:02.161Z,55.14
2018-09-08T19:02:02.131Z,54.83
2018-09-08T19:03:02.119Z,54.83
2018-09-08T19:04:02.118Z,54.61
2018-09-08T19:05:02.114Z,54.83
2018-09-08T19:06:02.087Z,54.71
2018-09-08T19:07:02.128Z,54.31
2018-09-08T19:08:02.060Z,54.71
2018-09-08T19:09:02.055Z,54.43
2018-09-08T19:10:02.105Z,54.41
2018-09-08T19:11:02.042Z,54.41
2018-09-08T19:12:02.022Z,54.81
2018-09-08T19:13:02.022Z,54.10
2018-09-08T19:14:01.995Z,55.21
2018-09-08T19:15:02.010Z,56.43
2018-09-08T19:16:01.990Z,54.81
2018-09-08T19:17:02.016Z,55.21
2018-09-08T19:18:01.956Z,54.71
2018-09-08T19:19:01.981Z,54.51
2018-09-08T19:20:02.012Z,54.38
2018-09-08T19:21:01.947Z,53.47
2018-09-08T19:22:01.930Z,54.68
2018-09-08T19:23:01.892Z,54.38
2018-09-08T19:24:01.942Z,53.98
2018-09-08T19:25:01.886Z,54.48
2018-09-08T19:26:01.911Z,54.91
2018-09-08T19:27:01.846Z,55.72
2018-09-08T19:28:01.837Z,56.25
2018-09-08T19:29:01.826Z,56.05
2018-09-08T19:30:01.818Z,56.45
2018-09-08T19:31:01.830Z,56.05
2018-09-08T19:32:02.719Z,56.15
2018-09-08T19:33:01.822Z,55.98
2018-09-08T19:34:01.791Z,56.68
2018-09-08T19:35:01.763Z,56.07
2018-09-08T19:36:01.759Z,56.38
2018-09-08T19:37:01.750Z,56.27
2018-09-08T19:38:01.719Z,55.77
2018-09-08T19:39:01.721Z,56.58
2018-09-08T19:40:01.702Z,57.11
2018-09-08T19:41:01.694Z,56.58
2018-09-08T19:42:01.699Z,56.40
2018-09-08T19:43:01.686Z,55.98
2018-09-08T19:44:01.650Z,56.58
2018-09-08T19:45:01.657Z,56.07
2018-09-08T19:46:01.632Z,56.07
2018-09-08T19:47:01.650Z,55.98
2018-09-08T19:48:01.652Z,56.07
2018-09-08T19:49:01.620Z,56.07
2018-09-08T19:50:01.592Z,55.77
2018-09-08T19:51:01.575Z,55.57
2018-09-08T19:52:01.580Z,56.48
2018-09-08T19:53:01.556Z,56.88
2018-09-08T19:54:01.543Z,57.09
2018-09-08T19:55:01.644Z,56.68
2018-09-08T19:56:01.520Z,56.68
2018-09-08T19:57:01.571Z,56.88
2018-09-08T19:58:01.494Z,57.39
2018-09-08T19:59:01.505Z,57.39
2018-09-08T20:00:01.506Z,56.88
2018-09-08T20:01:01.500Z,56.68
2018-09-08T20:02:01.527Z,56.78
2018-09-08T20:03:01.441Z,57.09
2018-09-08T20:04:01.425Z,58.43
2018-09-08T20:05:01.430Z,58.60
2018-09-08T20:06:01.409Z,58.23
2018-09-08T20:07:01.416Z,58.73
2018-09-08T20:08:01.401Z,58.12
2018-09-08T20:09:01.383Z,58.36
2018-09-08T20:10:01.381Z,58.36
2018-09-08T20:11:01.354Z,58.65
2018-09-08T20:12:01.366Z,58.23
2018-09-08T20:13:01.330Z,58.43
2018-09-08T20:14:01.319Z,58.65
2018-09-08T20:15:01.327Z,58.76
2018-09-08T20:16:01.292Z,58.86
2018-09-08T20:17:01.287Z,58.33
2018-09-08T20:18:01.285Z,58.53
2018-09-08T20:19:01.268Z,57.72
2018-09-08T20:20:01.254Z,58.53
2018-09-08T20:21:01.235Z,58.33
2018-09-08T20:22:01.230Z,58.33
2018-09-08T20:23:01.247Z,58.33
2018-09-08T20:24:01.199Z,57.89
2018-09-08T20:25:01.195Z,57.42
2018-09-08T20:26:01.191Z,57.21
2018-09-08T20:27:01.170Z,57.29
2018-09-08T20:28:01.194Z,58.00
2018-09-08T20:29:01.156Z,57.89
2018-09-08T20:30:01.135Z,57.29
2018-09-08T20:31:01.123Z,57.29
2018-09-08T20:32:01.118Z,57.29
2018-09-08T20:33:01.114Z,57.49
2018-09-08T20:34:01.108Z,57.29
2018-09-08T20:35:01.127Z,57.11
2018-09-08T20:36:01.062Z,58.12
2018-09-08T20:37:01.257Z,58.53
2018-09-08T20:38:01.062Z,58.23
2018-09-08T20:39:01.056Z,58.45
2018-09-08T20:40:01.024Z,58.65
2018-09-08T20:41:01.008Z,58.43
2018-09-08T20:42:00.999Z,58.25
2018-09-08T20:43:01.001Z,58.15
2018-09-08T20:44:00.996Z,58.86
2018-09-08T20:45:00.974Z,58.15
2018-09-08T20:46:00.959Z,58.36
2018-09-08T20:47:00.955Z,58.45
2018-09-08T20:48:00.928Z,58.56
2018-09-08T20:49:00.927Z,58.25
2018-09-08T20:50:00.925Z,58.02
2018-09-08T20:51:00.898Z,58.43
2018-09-08T20:52:00.888Z,58.33
2018-09-08T20:53:00.882Z,58.53
2018-09-08T20:54:00.863Z,58.23
2018-09-08T20:55:00.869Z,58.33
2018-09-08T20:56:00.859Z,58.33
2018-09-08T20:57:00.837Z,58.73
2018-09-08T20:58:00.839Z,58.30
2018-09-08T20:59:00.830Z,58.09
2018-09-08T21:00:00.828Z,58.91
2018-09-08T21:01:00.784Z,60.48
2018-09-08T21:02:00.769Z,61.01
2018-09-08T21:03:00.762Z,61.52
2018-09-08T21:04:00.759Z,61.08
2018-09-08T21:05:00.775Z,61.08
2018-09-08T21:06:00.727Z,61.49
2018-09-08T21:07:00.722Z,61.82
2018-09-08T21:08:00.703Z,61.01
2018-09-08T21:09:00.705Z,61.72
2018-09-08T21:10:00.699Z,61.32
2018-09-08T21:11:00.676Z,62.35
2018-09-08T21:12:00.664Z,61.72
2018-09-08T21:13:00.656Z,61.82
2018-09-08T21:14:00.640Z,61.32
2018-09-08T21:15:00.649Z,62.43
2018-09-08T21:16:00.612Z,62.26
2018-09-08T21:17:00.607Z,62.66
2018-09-08T21:18:00.596Z,63.07
2018-09-08T21:19:00.628Z,62.56
2018-09-08T21:20:00.569Z,62.63
2018-09-08T21:21:00.571Z,61.72
2018-09-08T21:22:00.558Z,61.59
2018-09-08T21:23:00.541Z,62.60
2018-09-08T21:24:00.525Z,62.10
2018-09-08T21:25:00.509Z,61.79
2018-09-08T21:26:00.518Z,62.10
2018-09-08T21:27:00.496Z,61.39
2018-09-08T21:28:00.534Z,61.62
2018-09-08T21:29:00.484Z,61.49
2018-09-08T21:30:00.469Z,61.39
2018-09-08T21:31:00.479Z,61.29
2018-09-08T21:32:00.459Z,61.59
2018-09-08T21:33:00.423Z,60.98
2018-09-08T21:34:00.414Z,61.32
2018-09-08T21:35:00.422Z,60.98
2018-09-08T21:36:00.406Z,60.98
2018-09-08T21:37:00.378Z,60.88
2018-09-08T21:38:00.369Z,61.52
2018-09-08T21:39:00.367Z,61.01
2018-09-08T21:40:00.344Z,63.07
2018-09-08T21:41:00.356Z,63.67
2018-09-08T21:42:00.363Z,62.86
2018-09-08T21:43:00.328Z,62.35
2018-09-08T21:44:00.300Z,63.07
2018-09-08T21:45:00.310Z,62.96
2018-09-08T21:46:00.301Z,63.17
2018-09-08T21:47:00.275Z,63.17
2018-09-08T21:48:00.250Z,64.18
2018-09-08T21:49:00.252Z,64.58
2018-09-08T21:50:00.230Z,64.72
2018-09-08T21:51:00.236Z,65.02
2018-09-08T21:52:00.241Z,65.25
2018-09-08T21:53:00.199Z,65.25
2018-09-08T21:54:00.188Z,65.56
2018-09-08T21:55:00.190Z,65.15
2018-09-08T21:56:00.172Z,65.15
2018-09-08T21:57:00.175Z,65.56
2018-09-08T21:58:00.140Z,65.15
2018-09-08T21:59:00.126Z,64.75
2018-09-08T22:00:00.117Z,65.36
2018-09-08T22:01:00.108Z,64.72
2018-09-08T22:02:00.117Z,63.30
2018-09-08T22:03:00.101Z,64.11
2018-09-08T22:04:00.074Z,63.47
2018-09-08T22:05:00.082Z,63.27
2018-09-08T22:06:00.048Z,63.17
2018-09-08T22:07:00.064Z,63.47
2018-09-08T22:08:00.043Z,63.81
2018-09-08T22:09:00.025Z,64.01
2018-09-08T22:10:00.001Z,64.31
2018-09-08T22:11:00.005Z,64.75
2018-09-08T22:12:00.013Z,65.15
2018-09-08T22:12:59.981Z,65.76
2018-09-08T22:13:59.957Z,65.66
2018-09-08T22:14:59.952Z,65.36
2018-09-08T22:15:59.987Z,65.56
2018-09-08T22:16:59.932Z,65.08
2018-09-08T22:17:59.936Z,65.59
2018-09-08T22:18:59.904Z,65.28
2018-09-08T22:19:59.887Z,65.48
2018-09-08T22:20:59.887Z,65.18
2018-09-08T22:21:59.868Z,65.59
2018-09-08T22:22:59.875Z,65.79
2018-09-08T22:23:59.842Z,65.66
2018-09-08T22:24:59.841Z,65.05
2018-09-08T22:25:59.851Z,65.76
2018-09-08T22:26:59.816Z,64.44
2018-09-08T22:27:59.838Z,65.25
2018-09-08T22:28:59.784Z,64.75
2018-09-08T22:29:59.788Z,64.34
2018-09-08T22:30:59.787Z,65.15
2018-09-08T22:31:59.761Z,65.45
2018-09-08T22:32:59.786Z,65.05
2018-09-08T22:33:59.743Z,65.15
2018-09-08T22:34:59.724Z,64.75
2018-09-08T22:35:59.712Z,64.75
2018-09-08T22:36:59.704Z,65.25
2018-09-08T22:37:59.685Z,64.95
2018-09-08T22:38:59.719Z,65.15
2018-09-08T22:39:59.673Z,64.95
2018-09-08T22:40:59.667Z,65.48
2018-09-08T22:41:59.650Z,65.66
2018-09-08T22:42:59.704Z,65.48
2018-09-08T22:43:59.636Z,65.45
2018-09-08T22:44:59.607Z,65.08
2018-09-08T22:45:59.605Z,65.15
2018-09-08T22:46:59.600Z,64.44
2018-09-08T22:47:59.592Z,64.44
2018-09-08T22:48:59.609Z,64.64
2018-09-08T22:49:59.548Z,64.75
2018-09-08T22:50:59.559Z,64.85
2018-09-08T22:51:59.545Z,64.75
2018-09-08T22:52:59.525Z,64.95
2018-09-08T22:53:59.519Z,65.36
2018-09-08T22:54:59.506Z,65.48
2018-09-08T22:55:59.500Z,65.28
2018-09-08T22:56:59.499Z,65.45
2018-09-08T22:57:59.469Z,65.36
2018-09-08T22:58:59.456Z,65.69
2018-09-08T22:59:59.459Z,65.45
2018-09-08T23:00:59.429Z,65.59
2018-09-08T23:01:59.428Z,66.09
2018-09-08T23:02:59.433Z,66.19
2018-09-08T23:03:59.406Z,66.83
2018-09-08T23:04:59.410Z,67.65
2018-09-08T23:05:59.400Z,67.14
2018-09-08T23:06:59.371Z,67.14
2018-09-08T23:07:59.352Z,67.24
2018-09-08T23:08:59.343Z,67.44
2018-09-08T23:09:59.346Z,67.14
2018-09-08T23:10:59.326Z,67.17
2018-09-08T23:11:59.317Z,67.14
2018-09-08T23:12:59.294Z,67.14
2018-09-08T23:13:59.292Z,67.47
2018-09-08T23:14:59.283Z,68.19
2018-09-08T23:15:59.258Z,68.79
2018-09-08T23:16:59.254Z,69.34
2018-09-08T23:17:59.255Z,69.30
2018-09-08T23:18:59.229Z,69.13
2018-09-08T23:19:59.245Z,69.34
2018-09-08T23:20:59.205Z,68.83
2018-09-08T23:21:59.200Z,68.90
2018-09-08T23:22:59.179Z,68.49
2018-09-08T23:23:59.167Z,68.90
2018-09-08T23:24:59.180Z,68.39
2018-09-08T23:25:59.153Z,67.58
2018-09-08T23:26:59.141Z,67.14
2018-09-08T23:27:59.122Z,67.85
2018-09-08T23:28:59.131Z,67.24
2018-09-08T23:29:59.114Z,67.44
2018-09-08T23:30:59.094Z,68.29
2018-09-08T23:31:59.098Z,67.27
2018-09-08T23:32:59.073Z,67.14
2018-09-08T23:33:59.059Z,67.21
2018-09-08T23:34:59.042Z,67.51
2018-09-08T23:35:59.053Z,67.21
2018-09-08T23:36:59.041Z,66.91
2018-09-08T23:37:59.044Z,67.11
2018-09-08T23:38:59.014Z,66.91
2018-09-08T23:39:58.990Z,66.50
2018-09-08T23:40:59.004Z,66.30
2018-09-08T23:41:58.972Z,67.21
2018-09-08T23:42:59.793Z,65.89
2018-09-08T23:43:58.958Z,66.30
2018-09-08T23:44:58.939Z,66.40
2018-09-08T23:45:58.928Z,66.80
2018-09-08T23:46:58.915Z,66.70
2018-09-08T23:47:58.926Z,66.19
2018-09-08T23:48:58.927Z,66.13
2018-09-08T23:49:58.883Z,66.70
2018-09-08T23:50:58.877Z,66.94
2018-09-08T23:51:58.878Z,67.24
2018-09-08T23:52:58.840Z,67.34
2018-09-08T23:53:58.834Z,66.94
2018-09-08T23:54:58.816Z,67.31
2018-09-08T23:55:58.810Z,67.03
2018-09-08T23:56:58.815Z,67.44
2018-09-08T23:57:58.789Z,67.72
2018-09-08T23:58:58.774Z,67.00
2018-09-08T23:59:58.777Z,66.09
